sensor_id;sensor_type;location;lat;lon;timestamp;pressure;altitude;pressure_sealevel;temperature;humidity
26865;BME280;40618;51.166;10.322;2024-03-02T00:01:14;96293.22;;;6.20;85.55
26865;BME280;40618;51.166;10.322;2024-03-02T00:03:42;96290.69;;;6.19;85.65
26865;BME280;40618;51.166;10.322;2024-03-02T00:06:09;96277.06;;;6.17;85.28
26865;BME280;40618;51.166;10.322;2024-03-02T00:08:35;96283.19;;;6.13;85.22
26865;BME280;40618;51.166;10.322;2024-03-02T00:11:01;96276.41;;;6.10;85.37
26865;BME280;40618;51.166;10.322;2024-03-02T00:13:30;96278.09;;;6.11;85.83
26865;BME280;40618;51.166;10.322;2024-03-02T00:15:57;96281.56;;;6.10;85.41
26865;BME280;40618;51.166;10.322;2024-03-02T00:18:33;96266.09;;;6.12;85.86
26865;BME280;40618;51.166;10.322;2024-03-02T00:21:00;96267.00;;;6.09;85.72
26865;BME280;40618;51.166;10.322;2024-03-02T00:23:30;96278.22;;;6.06;85.77
26865;BME280;40618;51.166;10.322;2024-03-02T00:25:56;96283.38;;;6.06;85.38
26865;BME280;40618;51.166;10.322;2024-03-02T00:28:29;96274.78;;;6.07;85.79
26865;BME280;40618;51.166;10.322;2024-03-02T00:31:09;96279.09;;;6.07;85.64
26865;BME280;40618;51.166;10.322;2024-03-02T00:33:43;96279.91;;;6.07;85.97
26865;BME280;40618;51.166;10.322;2024-03-02T00:36:12;96268.75;;;6.08;85.63
26865;BME280;40618;51.166;10.322;2024-03-02T00:38:53;96275.56;;;6.09;85.57
26865;BME280;40618;51.166;10.322;2024-03-02T00:41:27;96276.41;;;6.10;85.89
26865;BME280;40618;51.166;10.322;2024-03-02T00:44:01;96272.00;;;6.14;85.73
26865;BME280;40618;51.166;10.322;2024-03-02T00:46:38;96269.47;;;6.12;86.01
26865;BME280;40618;51.166;10.322;2024-03-02T00:49:22;96267.00;;;6.09;85.54
26865;BME280;40618;51.166;10.322;2024-03-02T00:51:51;96273.91;;;6.08;86.17
26865;BME280;40618;51.166;10.322;2024-03-02T00:54:22;96269.63;;;6.07;86.13
26865;BME280;40618;51.166;10.322;2024-03-02T00:56:52;96268.00;;;6.05;85.55
26865;BME280;40618;51.166;10.322;2024-03-02T00:59:21;96268.88;;;6.04;86.16
26865;BME280;40618;51.166;10.322;2024-03-02T01:01:48;96274.13;;;6.01;86.02
26865;BME280;40618;51.166;10.322;2024-03-02T01:04:15;96275.91;;;5.97;85.98
26865;BME280;40618;51.166;10.322;2024-03-02T01:06:42;96270.81;;;5.96;86.05
26865;BME280;40618;51.166;10.322;2024-03-02T01:09:08;96280.25;;;5.95;85.93
26865;BME280;40618;51.166;10.322;2024-03-02T01:11:34;96282.00;;;5.95;86.13
26865;BME280;40618;51.166;10.322;2024-03-02T01:14:00;96283.78;;;5.92;85.56
26865;BME280;40618;51.166;10.322;2024-03-02T01:16:25;96282.03;;;5.93;86.16
26865;BME280;40618;51.166;10.322;2024-03-02T01:18:51;96278.56;;;5.94;85.75
26865;BME280;40618;51.166;10.322;2024-03-02T01:21:17;96276.88;;;5.95;85.71
26865;BME280;40618;51.166;10.322;2024-03-02T01:23:42;96270.88;;;5.94;86.14
26865;BME280;40618;51.166;10.322;2024-03-02T01:26:08;96272.66;;;5.92;86.25
26865;BME280;40618;51.166;10.322;2024-03-02T01:28:35;96276.09;;;5.91;85.72
26865;BME280;40618;51.166;10.322;2024-03-02T01:31:01;96277.81;;;5.90;86.29
26865;BME280;40618;51.166;10.322;2024-03-02T01:33:28;96273.53;;;5.91;86.01
26865;BME280;40618;51.166;10.322;2024-03-02T01:35:54;96277.81;;;5.90;86.15
26865;BME280;40618;51.166;10.322;2024-03-02T01:38:20;96276.16;;;5.89;86.31
26865;BME280;40618;51.166;10.322;2024-03-02T01:40:46;96275.25;;;5.90;86.04
26865;BME280;40618;51.166;10.322;2024-03-02T01:43:11;96277.81;;;5.90;86.24
26865;BME280;40618;51.166;10.322;2024-03-02T01:45:37;96275.31;;;5.89;86.00
26865;BME280;40618;51.166;10.322;2024-03-02T01:48:06;96273.59;;;5.89;85.90
26865;BME280;40618;51.166;10.322;2024-03-02T01:50:34;96275.31;;;5.89;86.38
26865;BME280;40618;51.166;10.322;2024-03-02T01:53:00;96278.69;;;5.91;86.19
26865;BME280;40618;51.166;10.322;2024-03-02T01:55:28;96270.09;;;5.90;86.52
26865;BME280;40618;51.166;10.322;2024-03-02T01:57:55;96280.44;;;5.89;85.75
26865;BME280;40618;51.166;10.322;2024-03-02T02:00:22;96281.31;;;5.89;86.29
26865;BME280;40618;51.166;10.322;2024-03-02T02:02:50;96278.72;;;5.89;86.21
26865;BME280;40618;51.166;10.322;2024-03-02T02:05:17;96280.44;;;5.89;86.81
26865;BME280;40618;51.166;10.322;2024-03-02T02:07:43;96282.19;;;5.88;86.53
26865;BME280;40618;51.166;10.322;2024-03-02T02:10:10;96277.88;;;5.89;86.07
26865;BME280;40618;51.166;10.322;2024-03-02T02:12:37;96272.78;;;5.87;86.27
26865;BME280;40618;51.166;10.322;2024-03-02T02:15:20;96271.13;;;5.85;86.64
26865;BME280;40618;51.166;10.322;2024-03-02T02:17:54;96275.44;;;5.84;86.35
26865;BME280;40618;51.166;10.322;2024-03-02T02:20:21;96265.22;;;5.83;86.38
26865;BME280;40618;51.166;10.322;2024-03-02T02:23:05;96260.09;;;5.83;86.29
26865;BME280;40618;51.166;10.322;2024-03-02T02:25:32;96256.72;;;5.81;86.32
26865;BME280;40618;51.166;10.322;2024-03-02T02:27:58;96256.75;;;5.79;86.51
26865;BME280;40618;51.166;10.322;2024-03-02T02:30:29;96261.91;;;5.79;86.50
26865;BME280;40618;51.166;10.322;2024-03-02T02:32:56;96256.81;;;5.78;86.26
26865;BME280;40618;51.166;10.322;2024-03-02T02:35:22;96253.47;;;5.75;86.72
26865;BME280;40618;51.166;10.322;2024-03-02T02:37:49;96252.59;;;5.75;86.35
26865;BME280;40618;51.166;10.322;2024-03-02T02:40:16;96255.16;;;5.75;86.27
26865;BME280;40618;51.166;10.322;2024-03-02T02:42:43;96248.31;;;5.75;86.56
26865;BME280;40618;51.166;10.322;2024-03-02T02:45:09;96255.16;;;5.75;86.24
26865;BME280;40618;51.166;10.322;2024-03-02T02:47:38;96251.78;;;5.74;86.94
26865;BME280;40618;51.166;10.322;2024-03-02T02:50:04;96254.44;;;5.71;86.43
26865;BME280;40618;51.166;10.322;2024-03-02T02:52:34;96253.63;;;5.69;86.25
26865;BME280;40618;51.166;10.322;2024-03-02T02:55:03;96250.19;;;5.70;86.43
26865;BME280;40618;51.166;10.322;2024-03-02T02:57:30;96244.16;;;5.71;86.82
26865;BME280;40618;51.166;10.322;2024-03-02T03:00:01;96242.47;;;5.70;86.41
26865;BME280;40618;51.166;10.322;2024-03-02T03:02:30;96240.84;;;5.68;86.59
26865;BME280;40618;51.166;10.322;2024-03-02T03:04:57;96233.19;;;5.66;86.53
26865;BME280;40618;51.166;10.322;2024-03-02T03:07:24;96234.06;;;5.65;86.33
26865;BME280;40618;51.166;10.322;2024-03-02T03:09:50;96229.97;;;5.59;86.35
26865;BME280;40618;51.166;10.322;2024-03-02T03:12:16;96233.41;;;5.58;86.59
26865;BME280;40618;51.166;10.322;2024-03-02T03:14:43;96230.06;;;5.55;86.32
26865;BME280;40618;51.166;10.322;2024-03-02T03:17:09;96230.06;;;5.55;86.63
26865;BME280;40618;51.166;10.322;2024-03-02T03:19:34;96232.63;;;5.56;86.46
26865;BME280;40618;51.166;10.322;2024-03-02T03:22:01;96234.22;;;5.59;86.49
26865;BME280;40618;51.166;10.322;2024-03-02T03:24:26;96235.09;;;5.59;86.94
26865;BME280;40618;51.166;10.322;2024-03-02T03:26:52;96241.06;;;5.60;86.96
26865;BME280;40618;51.166;10.322;2024-03-02T03:29:18;96237.56;;;5.63;86.86
26865;BME280;40618;51.166;10.322;2024-03-02T03:31:44;96227.28;;;5.63;86.81
26865;BME280;40618;51.166;10.322;2024-03-02T03:34:10;96228.09;;;5.65;86.82
26865;BME280;40618;51.166;10.322;2024-03-02T03:36:41;96229.84;;;5.63;86.73
26865;BME280;40618;51.166;10.322;2024-03-02T03:39:07;96227.34;;;5.61;86.82
26865;BME280;40618;51.166;10.322;2024-03-02T03:41:33;96234.16;;;5.62;86.29
26865;BME280;40618;51.166;10.322;2024-03-02T03:43:58;96228.22;;;5.60;86.79
26865;BME280;40618;51.166;10.322;2024-03-02T03:46:24;96225.81;;;5.55;86.40
26865;BME280;40618;51.166;10.322;2024-03-02T03:48:50;96224.94;;;5.55;86.51
26865;BME280;40618;51.166;10.322;2024-03-02T03:51:15;96219.06;;;5.51;87.01
26865;BME280;40618;51.166;10.322;2024-03-02T03:53:41;96224.22;;;5.51;86.76
26865;BME280;40618;51.166;10.322;2024-03-02T03:56:07;96222.53;;;5.50;86.75
26865;BME280;40618;51.166;10.322;2024-03-02T03:58:32;96219.19;;;5.47;86.48
26865;BME280;40618;51.166;10.322;2024-03-02T04:00:58;96222.75;;;5.42;86.70
26865;BME280;40618;51.166;10.322;2024-03-02T04:03:23;96222.75;;;5.42;86.57
26865;BME280;40618;51.166;10.322;2024-03-02T04:05:49;96227.97;;;5.39;86.77
26865;BME280;40618;51.166;10.322;2024-03-02T04:08:15;96230.53;;;5.39;86.96
26865;BME280;40618;51.166;10.322;2024-03-02T04:10:43;96225.34;;;5.41;86.61
26865;BME280;40618;51.166;10.322;2024-03-02T04:13:11;96228.84;;;5.38;86.59
26865;BME280;40618;51.166;10.322;2024-03-02T04:15:37;96226.44;;;5.34;86.55
26865;BME280;40618;51.166;10.322;2024-03-02T04:18:03;96229.03;;;5.32;86.76
26865;BME280;40618;51.166;10.322;2024-03-02T04:20:29;96230.78;;;5.32;87.01
26865;BME280;40618;51.166;10.322;2024-03-02T04:22:56;96230.78;;;5.32;86.85
26865;BME280;40618;51.166;10.322;2024-03-02T04:25:21;96229.09;;;5.31;87.04
26865;BME280;40618;51.166;10.322;2024-03-02T04:27:48;96229.16;;;5.29;87.32
26865;BME280;40618;51.166;10.322;2024-03-02T04:30:14;96242.72;;;5.33;87.16
26865;BME280;40618;51.166;10.322;2024-03-02T04:32:43;96243.53;;;5.35;86.68
26865;BME280;40618;51.166;10.322;2024-03-02T04:35:11;96229.88;;;5.33;86.98
26865;BME280;40618;51.166;10.322;2024-03-02T04:37:57;96246.19;;;5.30;86.91
26865;BME280;40618;51.166;10.322;2024-03-02T04:40:25;96240.34;;;5.27;87.25
26865;BME280;40618;51.166;10.322;2024-03-02T04:42:50;96247.97;;;5.28;87.00
26865;BME280;40618;51.166;10.322;2024-03-02T04:45:16;96243.78;;;5.25;86.60
26865;BME280;40618;51.166;10.322;2024-03-02T04:47:41;96243.81;;;5.24;87.08
26865;BME280;40618;51.166;10.322;2024-03-02T04:50:08;96244.66;;;5.24;87.30
26865;BME280;40618;51.166;10.322;2024-03-02T04:52:36;96238.66;;;5.25;87.42
26865;BME280;40618;51.166;10.322;2024-03-02T04:55:02;96244.59;;;5.28;87.16
26865;BME280;40618;51.166;10.322;2024-03-02T04:57:41;96247.97;;;5.28;87.09
26865;BME280;40618;51.166;10.322;2024-03-02T05:00:08;96246.28;;;5.27;87.60
26865;BME280;40618;51.166;10.322;2024-03-02T05:02:34;96254.00;;;5.27;87.28
26865;BME280;40618;51.166;10.322;2024-03-02T05:05:00;96254.03;;;5.25;87.09
26865;BME280;40618;51.166;10.322;2024-03-02T05:07:27;96247.16;;;5.26;87.28
26865;BME280;40618;51.166;10.322;2024-03-02T05:09:53;96248.97;;;5.24;86.97
26865;BME280;40618;51.166;10.322;2024-03-02T05:12:19;96250.72;;;5.22;87.09
26865;BME280;40618;51.166;10.322;2024-03-02T05:15:03;96255.06;;;5.20;86.71
26865;BME280;40618;51.166;10.322;2024-03-02T05:17:29;96256.03;;;5.16;87.03
26865;BME280;40618;51.166;10.322;2024-03-02T05:19:55;96269.00;;;5.09;86.64
26865;BME280;40618;51.166;10.322;2024-03-02T05:22:22;96262.25;;;5.07;87.09
26865;BME280;40618;51.166;10.322;2024-03-02T05:24:47;96260.59;;;5.06;87.22
26865;BME280;40618;51.166;10.322;2024-03-02T05:27:13;96266.63;;;5.03;86.96
26865;BME280;40618;51.166;10.322;2024-03-02T05:29:39;96265.03;;;4.99;86.84
26865;BME280;40618;51.166;10.322;2024-03-02T05:32:05;96268.47;;;4.98;87.01
26865;BME280;40618;51.166;10.322;2024-03-02T05:34:31;96266.00;;;4.95;86.92
26865;BME280;40618;51.166;10.322;2024-03-02T05:36:58;96265.13;;;4.95;87.10
26865;BME280;40618;51.166;10.322;2024-03-02T05:39:23;96262.66;;;4.91;86.89
26865;BME280;40618;51.166;10.322;2024-03-02T05:41:49;96271.28;;;4.89;87.02
26865;BME280;40618;51.166;10.322;2024-03-02T05:44:14;96270.44;;;4.88;87.15
26865;BME280;40618;51.166;10.322;2024-03-02T05:46:41;96271.38;;;4.86;87.05
26865;BME280;40618;51.166;10.322;2024-03-02T05:49:07;96279.16;;;4.83;87.15
26865;BME280;40618;51.166;10.322;2024-03-02T05:51:35;96271.50;;;4.80;87.06
26865;BME280;40618;51.166;10.322;2024-03-02T05:54:00;96280.16;;;4.77;87.14
26865;BME280;40618;51.166;10.322;2024-03-02T05:56:26;96278.41;;;4.78;87.39
26865;BME280;40618;51.166;10.322;2024-03-02T05:58:52;96276.72;;;4.77;87.21
26865;BME280;40618;51.166;10.322;2024-03-02T06:01:37;96280.25;;;4.72;86.87
26865;BME280;40618;51.166;10.322;2024-03-02T06:04:03;96280.25;;;4.72;87.18
26865;BME280;40618;51.166;10.322;2024-03-02T06:06:28;96278.59;;;4.70;86.96
26865;BME280;40618;51.166;10.322;2024-03-02T06:08:55;96279.50;;;4.69;87.10
26865;BME280;40618;51.166;10.322;2024-03-02T06:11:23;96270.16;;;4.66;87.06
26865;BME280;40618;51.166;10.322;2024-03-02T06:13:48;96273.63;;;4.65;87.24
26865;BME280;40618;51.166;10.322;2024-03-02T06:16:14;96281.34;;;4.64;87.41
26865;BME280;40618;51.166;10.322;2024-03-02T06:18:39;96287.38;;;4.61;87.64
26865;BME280;40618;51.166;10.322;2024-03-02T06:21:05;96286.63;;;4.57;87.17
26865;BME280;40618;51.166;10.322;2024-03-02T06:23:30;96287.53;;;4.55;87.16
26865;BME280;40618;51.166;10.322;2024-03-02T06:25:57;96291.00;;;4.54;87.13
26865;BME280;40618;51.166;10.322;2024-03-02T06:28:22;96293.50;;;4.55;87.41
26865;BME280;40618;51.166;10.322;2024-03-02T06:30:48;96293.38;;;4.60;87.75
26865;BME280;40618;51.166;10.322;2024-03-02T06:33:14;96296.69;;;4.65;87.58
26865;BME280;40618;51.166;10.322;2024-03-02T06:35:39;96287.25;;;4.66;87.36
26865;BME280;40618;51.166;10.322;2024-03-02T06:38:06;96299.25;;;4.65;87.37
26865;BME280;40618;51.166;10.322;2024-03-02T06:40:31;96300.13;;;4.64;87.27
26865;BME280;40618;51.166;10.322;2024-03-02T06:42:57;96304.28;;;4.68;87.34
26865;BME280;40618;51.166;10.322;2024-03-02T06:45:25;96305.91;;;4.72;87.45
26865;BME280;40618;51.166;10.322;2024-03-02T06:47:50;96309.25;;;4.76;87.91
26865;BME280;40618;51.166;10.322;2024-03-02T06:50:16;96308.31;;;4.79;87.81
26865;BME280;40618;51.166;10.322;2024-03-02T06:52:41;96309.94;;;4.83;87.68
26865;BME280;40618;51.166;10.322;2024-03-02T06:55:08;96309.03;;;4.84;87.37
26865;BME280;40618;51.166;10.322;2024-03-02T06:57:34;96310.75;;;4.83;87.47
26865;BME280;40618;51.166;10.322;2024-03-02T06:59:59;96318.38;;;4.86;87.26
26865;BME280;40618;51.166;10.322;2024-03-02T07:02:25;96314.06;;;4.88;87.38
26865;BME280;40618;51.166;10.322;2024-03-02T07:04:52;96311.44;;;4.90;87.49
26865;BME280;40618;51.166;10.322;2024-03-02T07:07:20;96311.41;;;4.91;87.70
26865;BME280;40618;51.166;10.322;2024-03-02T07:09:46;96320.75;;;4.94;87.79
26865;BME280;40618;51.166;10.322;2024-03-02T07:12:13;96321.63;;;4.93;87.63
26865;BME280;40618;51.166;10.322;2024-03-02T07:14:39;96315.63;;;4.94;88.00
26865;BME280;40618;51.166;10.322;2024-03-02T07:17:23;96320.06;;;4.87;87.70
26865;BME280;40618;51.166;10.322;2024-03-02T07:19:49;96319.22;;;4.87;87.55
26865;BME280;40618;51.166;10.322;2024-03-02T07:22:16;96325.97;;;4.91;87.94
26865;BME280;40618;51.166;10.322;2024-03-02T07:24:42;96321.56;;;4.95;88.30
26865;BME280;40618;51.166;10.322;2024-03-02T07:27:12;96322.34;;;4.98;87.49
26865;BME280;40618;51.166;10.322;2024-03-02T07:29:39;96327.38;;;5.01;88.15
26865;BME280;40618;51.166;10.322;2024-03-02T07:32:05;96332.47;;;5.04;88.00
26865;BME280;40618;51.166;10.322;2024-03-02T07:34:33;96329.16;;;4.99;87.85
26865;BME280;40618;51.166;10.322;2024-03-02T07:36:59;96330.97;;;4.96;87.72
26865;BME280;40618;51.166;10.322;2024-03-02T07:39:28;96338.56;;;4.99;87.99
26865;BME280;40618;51.166;10.322;2024-03-02T07:41:54;96337.59;;;5.04;88.31
26865;BME280;40618;51.166;10.322;2024-03-02T07:44:20;96336.59;;;5.10;88.21
26865;BME280;40618;51.166;10.322;2024-03-02T07:46:46;96333.00;;;5.16;88.32
26865;BME280;40618;51.166;10.322;2024-03-02T07:49:13;96339.69;;;5.21;88.45
26865;BME280;40618;51.166;10.322;2024-03-02T07:51:42;96342.13;;;5.26;88.72
26865;BME280;40618;51.166;10.322;2024-03-02T07:54:08;96340.28;;;5.31;88.37
26865;BME280;40618;51.166;10.322;2024-03-02T07:56:35;96347.03;;;5.35;88.58
26865;BME280;40618;51.166;10.322;2024-03-02T07:59:03;96346.94;;;5.38;88.48
26865;BME280;40618;51.166;10.322;2024-03-02T08:01:30;96350.22;;;5.43;88.53
26865;BME280;40618;51.166;10.322;2024-03-02T08:03:57;96351.72;;;5.51;88.50
26865;BME280;40618;51.166;10.322;2024-03-02T08:06:27;96348.19;;;5.55;88.52
26865;BME280;40618;51.166;10.322;2024-03-02T08:09:00;96353.19;;;5.61;88.81
26865;BME280;40618;51.166;10.322;2024-03-02T08:11:27;96355.59;;;5.66;88.25
26865;BME280;40618;51.166;10.322;2024-03-02T08:13:53;96354.69;;;5.68;88.20
26865;BME280;40618;51.166;10.322;2024-03-02T08:16:21;96363.16;;;5.72;88.42
26865;BME280;40618;51.166;10.322;2024-03-02T08:18:49;96363.06;;;5.75;88.71
26865;BME280;40618;51.166;10.322;2024-03-02T08:21:16;96360.44;;;5.76;88.38
26865;BME280;40618;51.166;10.322;2024-03-02T08:23:42;96361.19;;;5.80;88.24
26865;BME280;40618;51.166;10.322;2024-03-02T08:26:09;96356.00;;;5.82;88.73
26865;BME280;40618;51.166;10.322;2024-03-02T08:28:35;96355.91;;;5.85;88.09
26865;BME280;40618;51.166;10.322;2024-03-02T08:31:07;96361.78;;;5.90;88.35
26865;BME280;40618;51.166;10.322;2024-03-02T08:33:33;96353.88;;;5.98;88.51
26865;BME280;40618;51.166;10.322;2024-03-02T08:35:59;96359.69;;;6.04;88.79
26865;BME280;40618;51.166;10.322;2024-03-02T08:38:26;96357.72;;;6.13;88.47
26865;BME280;40618;51.166;10.322;2024-03-02T08:40:52;96362.63;;;6.20;88.88
26865;BME280;40618;51.166;10.322;2024-03-02T08:43:19;96351.28;;;6.28;88.94
26865;BME280;40618;51.166;10.322;2024-03-02T08:46:11;96351.84;;;6.37;88.08
26865;BME280;40618;51.166;10.322;2024-03-02T08:48:36;96351.63;;;6.43;88.72
26865;BME280;40618;51.166;10.322;2024-03-02T08:51:02;96353.09;;;6.52;88.80
26865;BME280;40618;51.166;10.322;2024-03-02T08:53:31;96355.41;;;6.60;88.55
26865;BME280;40618;51.166;10.322;2024-03-02T08:55:56;96356.97;;;6.66;88.13
26865;BME280;40618;51.166;10.322;2024-03-02T08:58:25;96342.25;;;6.69;88.06
26865;BME280;40618;51.166;10.322;2024-03-02T09:00:51;96353.34;;;6.71;87.77
26865;BME280;40618;51.166;10.322;2024-03-02T09:03:16;96351.59;;;6.72;88.44
26865;BME280;40618;51.166;10.322;2024-03-02T09:05:43;96358.31;;;6.76;88.09
26865;BME280;40618;51.166;10.322;2024-03-02T09:08:10;96359.97;;;6.78;87.91
26865;BME280;40618;51.166;10.322;2024-03-02T09:10:35;96366.63;;;6.84;87.88
26865;BME280;40618;51.166;10.322;2024-03-02T09:13:01;96359.66;;;6.88;87.87
26865;BME280;40618;51.166;10.322;2024-03-02T09:15:27;96360.44;;;6.90;87.79
26865;BME280;40618;51.166;10.322;2024-03-02T09:17:53;96359.66;;;6.88;87.92
26865;BME280;40618;51.166;10.322;2024-03-02T09:20:18;96361.31;;;6.89;87.50
26865;BME280;40618;51.166;10.322;2024-03-02T09:22:44;96363.88;;;6.90;87.87
26865;BME280;40618;51.166;10.322;2024-03-02T09:25:12;96371.47;;;6.93;87.43
26865;BME280;40618;51.166;10.322;2024-03-02T09:27:39;96372.31;;;6.94;87.59
26865;BME280;40618;51.166;10.322;2024-03-02T09:30:07;96373.91;;;6.98;87.63
26865;BME280;40618;51.166;10.322;2024-03-02T09:32:34;96375.41;;;7.04;87.40
26865;BME280;40618;51.166;10.322;2024-03-02T09:35:00;96374.44;;;7.08;87.65
26865;BME280;40618;51.166;10.322;2024-03-02T09:37:26;96376.97;;;7.09;87.31
26865;BME280;40618;51.166;10.322;2024-03-02T09:39:52;96371.78;;;7.11;87.29
26865;BME280;40618;51.166;10.322;2024-03-02T09:42:17;96375.88;;;7.17;87.06
26865;BME280;40618;51.166;10.322;2024-03-02T09:44:44;96373.19;;;7.20;86.73
26865;BME280;40618;51.166;10.322;2024-03-02T09:47:09;96376.56;;;7.22;86.77
26865;BME280;40618;51.166;10.322;2024-03-02T09:49:36;96377.19;;;7.28;86.56
26865;BME280;40618;51.166;10.322;2024-03-02T09:52:02;96367.66;;;7.31;86.66
26865;BME280;40618;51.166;10.322;2024-03-02T09:54:29;96374.44;;;7.33;86.43
26865;BME280;40618;51.166;10.322;2024-03-02T09:56:54;96369.88;;;7.41;87.44
26865;BME280;40618;51.166;10.322;2024-03-02T09:59:20;96373.22;;;7.43;87.13
26865;BME280;40618;51.166;10.322;2024-03-02T10:04:26;96379.13;;;7.47;86.56
26865;BME280;40618;51.166;10.322;2024-03-02T10:07:15;96382.50;;;7.49;85.83
26865;BME280;40618;51.166;10.322;2024-03-02T10:09:43;96377.28;;;7.51;86.56
26865;BME280;40618;51.166;10.322;2024-03-02T10:12:11;96387.53;;;7.52;86.51
26865;BME280;40618;51.166;10.322;2024-03-02T10:14:38;96383.22;;;7.53;86.33
26865;BME280;40618;51.166;10.322;2024-03-02T10:17:08;96381.50;;;7.53;85.82
26865;BME280;40618;51.166;10.322;2024-03-02T10:19:36;96389.16;;;7.55;85.99
26865;BME280;40618;51.166;10.322;2024-03-02T10:22:05;96388.25;;;7.56;86.27
26865;BME280;40618;51.166;10.322;2024-03-02T10:24:36;96381.31;;;7.58;85.43
26865;BME280;40618;51.166;10.322;2024-03-02T10:27:10;96382.06;;;7.61;85.78
26865;BME280;40618;51.166;10.322;2024-03-02T10:29:47;96379.31;;;7.66;85.61
26865;BME280;40618;51.166;10.322;2024-03-02T10:32:13;96375.78;;;7.69;85.88
26865;BME280;40618;51.166;10.322;2024-03-02T10:34:46;96378.97;;;7.75;85.38
26865;BME280;40618;51.166;10.322;2024-03-02T10:37:12;96380.66;;;7.76;85.49
26865;BME280;40618;51.166;10.322;2024-03-02T10:39:40;96384.81;;;7.81;85.84
26865;BME280;40618;51.166;10.322;2024-03-02T10:42:06;96388.09;;;7.84;84.88
26865;BME280;40618;51.166;10.322;2024-03-02T10:44:33;96382.81;;;7.89;85.12
26865;BME280;40618;51.166;10.322;2024-03-02T10:47:01;96387.59;;;7.98;85.59
26865;BME280;40618;51.166;10.322;2024-03-02T10:49:30;96383.97;;;8.04;85.82
26865;BME280;40618;51.166;10.322;2024-03-02T10:52:00;96388.06;;;8.09;84.98
26865;BME280;40618;51.166;10.322;2024-03-02T10:54:26;96388.69;;;8.16;84.85
26865;BME280;40618;51.166;10.322;2024-03-02T10:57:01;96385.84;;;8.22;84.88
26865;BME280;40618;51.166;10.322;2024-03-02T10:59:35;96379.56;;;8.29;84.90
26865;BME280;40618;51.166;10.322;2024-03-02T11:02:03;96377.78;;;8.32;85.06
26865;BME280;40618;51.166;10.322;2024-03-02T11:04:31;96382.81;;;8.35;84.46
26865;BME280;40618;51.166;10.322;2024-03-02T11:07:17;96378.31;;;8.40;84.88
26865;BME280;40618;51.166;10.322;2024-03-02T11:09:56;96377.25;;;8.45;84.31
26865;BME280;40618;51.166;10.322;2024-03-02T11:12:32;96379.66;;;8.50;84.98
26865;BME280;40618;51.166;10.322;2024-03-02T11:15:08;96372.47;;;8.58;84.64
26865;BME280;40618;51.166;10.322;2024-03-02T11:17:38;96370.47;;;8.65;83.81
26865;BME280;40618;51.166;10.322;2024-03-02T11:20:07;96365.91;;;8.72;84.57
26865;BME280;40618;51.166;10.322;2024-03-02T11:22:35;96375.44;;;8.92;84.82
26865;BME280;40618;51.166;10.322;2024-03-02T11:25:03;96376.47;;;9.08;84.51
26865;BME280;40618;51.166;10.322;2024-03-02T11:33:09;96382.75;;;9.23;83.47
26865;BME280;40618;51.166;10.322;2024-03-02T11:35:38;96377.38;;;9.28;83.33
26865;BME280;40618;51.166;10.322;2024-03-02T11:38:11;96369.78;;;9.25;83.35
26865;BME280;40618;51.166;10.322;2024-03-02T11:40:39;96373.25;;;9.24;83.31
26865;BME280;40618;51.166;10.322;2024-03-02T11:43:07;96369.84;;;9.23;82.91
26865;BME280;40618;51.166;10.322;2024-03-02T11:45:36;96368.09;;;9.24;82.77
26865;BME280;40618;51.166;10.322;2024-03-02T11:48:08;96367.31;;;9.22;82.85
26865;BME280;40618;51.166;10.322;2024-03-02T11:50:49;96367.97;;;9.27;82.97
26865;BME280;40618;51.166;10.322;2024-03-02T11:53:15;96361.78;;;9.31;82.83
26865;BME280;40618;51.166;10.322;2024-03-02T11:55:44;96358.25;;;9.32;83.19
26865;BME280;40618;51.166;10.322;2024-03-02T11:58:13;96352.91;;;9.37;82.44
26865;BME280;40618;51.166;10.322;2024-03-02T12:00:40;96350.91;;;9.43;82.43
26865;BME280;40618;51.166;10.322;2024-03-02T12:03:07;96349.81;;;9.49;82.74
26865;BME280;40618;51.166;10.322;2024-03-02T12:05:35;96340.03;;;9.56;82.24
26865;BME280;40618;51.166;10.322;2024-03-02T12:08:03;96340.53;;;9.64;82.66
26865;BME280;40618;51.166;10.322;2024-03-02T12:10:32;96341.88;;;9.73;82.26
26865;BME280;40618;51.166;10.322;2024-03-02T12:13:05;96336.94;;;9.87;82.54
26865;BME280;40618;51.166;10.322;2024-03-02T12:15:34;96335.41;;;10.02;82.41
26865;BME280;40618;51.166;10.322;2024-03-02T12:18:04;96327.63;;;10.02;81.76
26865;BME280;40618;51.166;10.322;2024-03-02T12:20:32;96334.47;;;10.03;81.48
26865;BME280;40618;51.166;10.322;2024-03-02T12:23:00;96323.69;;;10.12;81.92
26865;BME280;40618;51.166;10.322;2024-03-02T12:25:27;96326.09;;;10.17;81.33
26865;BME280;40618;51.166;10.322;2024-03-02T12:27:55;96325.38;;;10.32;81.28
26865;BME280;40618;51.166;10.322;2024-03-02T12:30:22;96318.34;;;10.36;80.57
26865;BME280;40618;51.166;10.322;2024-03-02T12:32:49;96318.19;;;10.39;80.65
26865;BME280;40618;51.166;10.322;2024-03-02T12:35:15;96319.16;;;10.37;80.10
26865;BME280;40618;51.166;10.322;2024-03-02T12:37:50;96316.50;;;10.38;79.97
26865;BME280;40618;51.166;10.322;2024-03-02T12:40:18;96318.38;;;10.35;80.06
26865;BME280;40618;51.166;10.322;2024-03-02T12:42:46;96322.94;;;10.29;79.60
26865;BME280;40618;51.166;10.322;2024-03-02T12:45:13;96317.13;;;10.24;79.72
26865;BME280;40618;51.166;10.322;2024-03-02T12:47:40;96318.19;;;10.20;79.42
26865;BME280;40618;51.166;10.322;2024-03-02T12:50:07;96319.09;;;10.19;79.57
26865;BME280;40618;51.166;10.322;2024-03-02T12:52:34;96317.94;;;10.25;79.54
26865;BME280;40618;51.166;10.322;2024-03-02T12:55:06;96320.47;;;10.26;79.68
26865;BME280;40618;51.166;10.322;2024-03-02T12:57:33;96322.78;;;10.32;79.06
26865;BME280;40618;51.166;10.322;2024-03-02T13:00:03;96318.66;;;10.28;79.34
26865;BME280;40618;51.166;10.322;2024-03-02T13:02:41;96317.88;;;10.26;79.24
26865;BME280;40618;51.166;10.322;2024-03-02T13:05:08;96307.53;;;10.26;79.06
26865;BME280;40618;51.166;10.322;2024-03-02T13:07:40;96303.38;;;10.24;78.88
26865;BME280;40618;51.166;10.322;2024-03-02T13:10:10;96305.03;;;10.25;78.94
26865;BME280;40618;51.166;10.322;2024-03-02T13:12:36;96311.94;;;10.24;78.45